Time;durP1;ratioP1;P1;durP2;ratioP2;P2;SDS_P1;SDS_P2;PMS_P1;PMS_P2;Temp;Humidity;BMP_temperature;BMP_pressure;BME280_temperature;BME280_humidity;BME280_pressure;Samples;Min_cycle;Max_cycle;Signal;HPM_P1;HPM_P2
2022/06/04 00:02:12;;;;;;;6.93;5.72;;;;;;;;;;5044545;28;20101;-59
2022/06/04 00:16:49;;;;;;;6.60;6.00;;;;;;;;;;5040409;28;20443;-59
2022/06/04 00:19:47;;;;;;;7.03;6.32;;;;;;;;;;5026991;28;20033;-59
2022/06/04 00:22:17;;;;;;;8.43;7.13;;;;;;;;;;5024911;28;20109;-59
2022/06/04 00:24:58;;;;;;;8.50;6.60;;;;;;;;;;5027684;28;20033;-59
2022/06/04 00:40:07;;;;;;;7.38;5.90;;;;;;;;;;4972122;28;20070;-59
2022/06/04 00:42:44;;;;;;;7.18;6.03;;;;;;;;;;5015404;28;20042;-59
2022/06/04 00:45:32;;;;;;;7.90;6.68;;;;;;;;;;5026646;28;20372;-59
2022/06/04 00:51:27;;;;;;;7.80;6.72;;;;;;;;;;5026552;28;20112;-59
2022/06/04 00:53:59;;;;;;;9.15;7.05;;;;;;;;;;5009030;28;20360;-59
2022/06/04 00:56:49;;;;;;;6.97;6.25;;;;;;;;;;5026287;28;20038;-59
2022/06/04 00:59:41;;;;;;;8.20;7.20;;;;;;;;;;5026802;28;20480;-59
2022/06/04 01:05:36;;;;;;;9.18;8.10;;;;;;;;;;5018317;28;20034;-59
2022/06/04 01:08:26;;;;;;;12.30;8.02;;;;;;;;;;5026379;28;20029;-59
2022/06/04 01:11:01;;;;;;;8.07;7.28;;;;;;;;;;5026874;28;20054;-62
2022/06/04 01:14:12;;;;;;;;;;;;;;;;;;;;;
2022/06/04 01:17:06;;;;;;;9.40;7.28;;;;;;;;;;5024924;28;20125;-58
2022/06/04 01:20:06;;;;;;;7.80;7.05;;;;;;;;;;5035990;28;20124;-59
2022/06/04 01:22:58;;;;;;;7.57;6.80;;;;;;;;;;5026150;28;20033;-59
2022/06/04 01:25:45;;;;;;;9.18;8.00;;;;;;;;;;5026366;28;20030;-59
2022/06/04 01:28:34;;;;;;;7.95;7.15;;;;;;;;;;5036007;28;20034;-59
2022/06/04 01:31:08;;;;;;;7.35;6.63;;;;;;;;;;5025504;28;20026;-59
2022/06/04 01:34:10;;;;;;;7.78;7.00;;;;;;;;;;5025754;28;20030;-59
2022/06/04 01:45:56;;;;;;;8.57;6.82;;;;;;;;;;5026468;28;20364;-59
2022/06/04 01:48:54;;;;;;;6.22;5.65;;;;;;;;;;5026270;28;20053;-59
2022/06/04 01:51:46;;;;;;;7.03;6.32;;;;;;;;;;4996681;28;20053;-59
2022/06/04 01:57:40;;;;;;;9.52;6.78;;;;;;;;;;4946101;29;20067;-59
2022/06/04 02:00:29;;;;;;;7.28;6.45;;;;;;;;;;5026310;28;20068;-58
2022/06/04 02:03:43;;;;;;;6.93;5.88;;;;;;;;;;5041459;28;20022;-59
2022/06/04 02:09:26;;;;;;;6.07;5.47;;;;;;;;;;5025975;28;20199;-59
2022/06/04 02:12:37;;;;;;;;;;;;;;;;;;;;;
2022/06/04 02:15:30;;;;;;;7.22;6.28;;;;;;;;;;5015629;28;20112;-59
2022/06/04 02:18:15;;;;;;;7.03;6.43;;;;;;;;;;5045784;28;20440;-59
2022/06/04 02:21:17;;;;;;;14.05;7.28;;;;;;;;;;5046680;28;20052;-59
2022/06/04 02:24:22;;;;;;;6.38;5.28;;;;;;;;;;5045426;28;20109;-59
2022/06/04 02:26:48;;;;;;;8.07;7.05;;;;;;;;;;5043472;28;20046;-59
2022/06/04 02:29:22;;;;;;;7.50;6.65;;;;;;;;;;5044241;28;20040;-59
2022/06/04 02:32:03;;;;;;;6.40;5.78;;;;;;;;;;5046682;28;20026;-59
2022/06/04 02:38:02;;;;;;;11.40;7.10;;;;;;;;;;5047036;28;20073;-59
2022/06/04 02:40:47;;;;;;;7.70;6.90;;;;;;;;;;5046626;28;20106;-59
2022/06/04 02:43:30;;;;;;;;;;;;;;;;;;;;;
2022/06/04 02:58:40;;;;;;;8.82;7.15;;;;;;;;;;4947388;29;20054;-59
2022/06/04 03:04:19;;;;;;;10.23;8.07;;;;;;;;;;5001514;28;20069;-59
2022/06/04 03:07:21;;;;;;;10.77;6.72;;;;;;;;;;4988429;28;20485;-59
2022/06/04 03:10:17;;;;;;;8.70;7.47;;;;;;;;;;4973747;28;20034;-59
2022/06/04 03:12:48;;;;;;;8.90;7.57;;;;;;;;;;4992124;28;20129;-59
2022/06/04 03:15:32;;;;;;;;;;;;;;;;;;5004966;28;20041;-59
2022/06/04 03:18:19;;;;;;;7.60;6.80;;;;;;;;;;5003598;28;19910;-59
2022/06/04 03:23:59;;;;;;;7.97;7.28;;;;;;;;;;5020246;28;20056;-59
2022/06/04 03:26:57;;;;;;;9.25;8.27;;;;;;;;;;5020514;28;20113;-59
2022/06/04 03:29:48;;;;;;;7.80;7.10;;;;;;;;;;4998201;28;20036;-59
2022/06/04 03:32:37;;;;;;;8.07;7.28;;;;;;;;;;5020123;28;20049;-59
2022/06/04 03:35:14;;;;;;;7.82;6.15;;;;;;;;;;5017431;28;20429;-58
2022/06/04 03:37:53;;;;;;;7.68;6.97;;;;;;;;;;5017214;28;20022;-59
2022/06/04 03:43:38;;;;;;;7.95;6.68;;;;;;;;;;4955868;29;20532;-59
2022/06/04 03:46:33;;;;;;;9.35;6.93;;;;;;;;;;5008144;28;20042;-58
2022/06/04 03:49:33;;;;;;;8.95;8.05;;;;;;;;;;5008455;28;20080;-59
2022/06/04 03:52:32;;;;;;;9.15;7.93;;;;;;;;;;4999708;28;20123;-58
2022/06/04 03:55:20;;;;;;;11.05;7.57;;;;;;;;;;4995266;28;20041;-58
2022/06/04 03:58:21;;;;;;;8.95;8.02;;;;;;;;;;5016708;28;20053;-58
2022/06/04 04:01:10;;;;;;;;;;;;;;;;;;;;;
2022/06/04 04:03:51;;;;;;;8.30;7.50;;;;;;;;;;4982171;28;20393;-59
2022/06/04 04:06:22;;;;;;;8.98;8.05;;;;;;;;;;5000401;28;20045;-59
2022/06/04 04:08:54;;;;;;;11.35;7.88;;;;;;;;;;5016722;28;20033;-59
2022/06/04 04:11:47;;;;;;;8.48;7.63;;;;;;;;;;5003358;28;20045;-59
2022/06/04 04:14:44;;;;;;;7.63;6.93;;;;;;;;;;5032833;28;20030;-59
2022/06/04 04:17:41;;;;;;;;;;;;;;;;;;;;;
2022/06/04 04:23:07;;;;;;;;;;;;;;;;;;;;;
2022/06/04 04:25:54;;;;;;;7.55;5.85;;;;;;;;;;5036687;28;19956;-59
2022/06/04 04:28:43;;;;;;;7.75;6.85;;;;;;;;;;5036542;28;20021;-58
2022/06/04 04:31:35;;;;;;;6.97;6.28;;;;;;;;;;5014545;28;20379;-58
2022/06/04 04:34:10;;;;;;;7.32;6.57;;;;;;;;;;4999925;28;20041;-58
2022/06/04 04:40:26;;;;;;;8.35;7.43;;;;;;;;;;4975404;28;20081;-59
2022/06/04 04:43:04;;;;;;;8.27;7.22;;;;;;;;;;4973873;28;20034;-58
2022/06/04 04:45:51;;;;;;;7.60;6.90;;;;;;;;;;5027700;28;20486;-59
2022/06/04 04:48:46;;;;;;;7.80;6.95;;;;;;;;;;5056930;28;20032;-58
2022/06/04 04:51:39;;;;;;;6.68;6.03;;;;;;;;;;5055584;28;20035;-59
2022/06/04 04:54:13;;;;;;;6.03;5.53;;;;;;;;;;5056469;28;20092;-59
2022/06/04 04:56:40;;;;;;;12.25;6.18;;;;;;;;;;5059148;28;20021;-59
2022/06/04 05:02:02;;;;;;;7.45;5.78;;;;;;;;;;5053648;28;20524;-59
2022/06/04 05:07:31;;;;;;;6.10;5.50;;;;;;;;;;5012891;28;20108;-59
2022/06/04 05:10:34;;;;;;;7.05;5.45;;;;;;;;;;5012931;28;20069;-59
2022/06/04 05:13:16;;;;;;;6.97;6.38;;;;;;;;;;5012084;28;20445;-58
2022/06/04 05:15:43;;;;;;;6.60;5.97;;;;;;;;;;5012651;28;20038;-59
2022/06/04 05:21:28;;;;;;;8.02;6.25;;;;;;;;;;5016859;28;20030;-59
2022/06/04 05:24:14;;;;;;;6.07;5.45;;;;;;;;;;5050906;28;20029;-59
2022/06/04 05:26:52;;;;;;;;;;;;;;;;;;;;;
2022/06/04 05:29:22;;;;;;;6.65;5.90;;;;;;;;;;5054623;28;20350;-59
2022/06/04 05:32:10;;;;;;;6.20;5.60;;;;;;;;;;5055031;28;20352;-59
2022/06/04 05:35:00;;;;;;;6.32;5.72;;;;;;;;;;5054911;28;20052;-59
2022/06/04 05:37:46;;;;;;;5.93;5.32;;;;;;;;;;5054955;28;20036;-59
2022/06/04 05:40:40;;;;;;;;;;;;;;;;;;;;;
2022/06/04 05:46:29;;;;;;;8.77;5.38;;;;;;;;;;5054537;28;20048;-59
2022/06/04 05:49:04;;;;;;;5.22;4.72;;;;;;;;;;5054299;28;20025;-59
2022/06/04 05:54:51;;;;;;;6.70;4.53;;;;;;;;;;5030611;28;20036;-59
2022/06/04 05:57:20;;;;;;;5.25;4.75;;;;;;;;;;5036501;28;20494;-59
2022/06/04 05:59:52;;;;;;;6.57;5.57;;;;;;;;;;5054188;28;20025;-59
2022/06/04 06:03:02;;;;;;;;;;;;;;;;;;;;;
2022/06/04 06:08:55;;;;;;;6.03;5.18;;;;;;;;;;5022863;28;20079;-59
2022/06/04 06:11:36;;;;;;;6.47;5.50;;;;;;;;;;5036976;28;20025;-58
2022/06/04 06:14:46;;;;;;;;;;;;;;;;;;;;;
2022/06/04 06:17:44;;;;;;;9.30;5.60;;;;;;;;;;4988041;28;20042;-59
2022/06/04 06:20:29;;;;;;;6.57;4.65;;;;;;;;;;5037095;28;20041;-59
2022/06/04 06:23:21;;;;;;;;;;;;;;;;;;;;;
2022/06/04 06:26:02;;;;;;;6.65;5.45;;;;;;;;;;5054024;28;20470;-59
2022/06/04 06:28:40;;;;;;;7.43;5.68;;;;;;;;;;5052751;28;20497;-59
2022/06/04 06:34:31;;;;;;;6.47;5.88;;;;;;;;;;5044714;28;20494;-60
2022/06/04 06:37:13;;;;;;;6.07;4.75;;;;;;;;;;5052679;28;20069;-58
2022/06/04 06:39:56;;;;;;;5.85;5.35;;;;;;;;;;5054284;28;20029;-60
2022/06/04 06:42:31;;;;;;;7.57;6.13;;;;;;;;;;5052819;28;20469;-60
2022/06/04 06:45:32;;;;;;;5.90;5.40;;;;;;;;;;5053998;28;20100;-57
2022/06/04 06:54:43;;;;;;;6.78;5.85;;;;;;;;;;5012013;28;20030;-58
2022/06/04 06:57:19;;;;;;;6.47;5.88;;;;;;;;;;5012252;28;20042;-58
2022/06/04 07:00:20;;;;;;;7.97;5.90;;;;;;;;;;4981990;28;20046;-58
2022/06/04 07:05:50;;;;;;;6.25;5.63;;;;;;;;;;5031874;28;20056;-58
2022/06/04 07:08:31;;;;;;;6.60;6.03;;;;;;;;;;5057721;28;20071;-58
2022/06/04 07:13:59;;;;;;;6.47;5.88;;;;;;;;;;5021905;28;20053;-58
2022/06/04 07:16:57;;;;;;;;;;;;;;;;;;;;;
2022/06/04 07:20:19;;;;;;;9.82;7.15;;;;;;;;;;5035007;28;20455;-58
2022/06/04 07:22:58;;;;;;;8.13;5.72;;;;;;;;;;5027088;28;20072;-58
2022/06/04 07:25:41;;;;;;;8.65;7.20;;;;;;;;;;5034471;28;20054;-58
2022/06/04 07:28:38;;;;;;;;;;;;;;;;;;;;;
2022/06/04 07:34:17;;;;;;;5.93;5.32;;;;;;;;;;5034754;28;20029;-58
2022/06/04 07:37:16;;;;;;;5.95;4.85;;;;;;;;;;5034674;28;20498;-58
2022/06/04 07:39:58;;;;;;;6.25;5.47;;;;;;;;;;5014669;28;20033;-58
2022/06/04 07:45:56;;;;;;;5.77;5.20;;;;;;;;;;5014580;28;20041;-58
2022/06/04 07:48:36;;;;;;;5.88;5.15;;;;;;;;;;5019683;28;20033;-58
2022/06/04 07:51:09;;;;;;;6.47;5.80;;;;;;;;;;5036314;28;20048;-58
2022/06/04 07:53:44;;;;;;;9.02;5.75;;;;;;;;;;5035974;28;20029;-58
2022/06/04 07:56:45;;;;;;;6.78;5.82;;;;;;;;;;5036058;28;20144;-58
2022/06/04 07:59:28;;;;;;;7.47;6.47;;;;;;;;;;4975137;28;20498;-59
2022/06/04 08:02:14;;;;;;;9.60;7.40;;;;;;;;;;5036121;28;20018;-59
2022/06/04 08:05:05;;;;;;;10.02;7.35;;;;;;;;;;5036326;28;20108;-60
2022/06/04 08:07:52;;;;;;;8.18;7.32;;;;;;;;;;5035327;28;20539;-60
2022/06/04 08:13:41;;;;;;;10.70;7.20;;;;;;;;;;5027241;28;20057;-58
2022/06/04 08:16:33;;;;;;;9.98;8.52;;;;;;;;;;5036973;28;20099;-59
2022/06/04 08:19:42;;;;;;;8.75;8.05;;;;;;;;;;5036135;28;20014;-58
2022/06/04 08:22:40;;;;;;;9.45;6.60;;;;;;;;;;5036635;28;20027;-59
2022/06/04 08:25:32;;;;;;;7.95;6.75;;;;;;;;;;5036501;28;20029;-59
2022/06/04 08:28:09;;;;;;;8.43;6.78;;;;;;;;;;5008886;28;20042;-60
2022/06/04 08:31:05;;;;;;;9.05;6.30;;;;;;;;;;5036010;28;20025;-60
2022/06/04 08:34:21;;;;;;;6.55;5.72;;;;;;;;;;5026362;28;20103;-60
2022/06/04 08:37:12;;;;;;;;;;;;;;;;;;;;;
2022/06/04 08:39:51;;;;;;;7.97;6.82;;;;;;;;;;5031147;28;20467;-61
2022/06/04 08:42:56;;;;;;;7.22;6.60;;;;;;;;;;5066980;28;20143;-60
2022/06/04 08:49:00;;;;;;;6.63;6.03;;;;;;;;;;4974155;28;20035;-59
2022/06/04 08:51:41;;;;;;;7.30;6.60;;;;;;;;;;5026353;28;20069;-59
2022/06/04 09:03:31;;;;;;;5.38;4.85;;;;;;;;;;5035891;28;20033;-60
2022/06/04 09:06:25;;;;;;;7.72;5.57;;;;;;;;;;5035586;28;20052;-59
2022/06/04 09:09:05;;;;;;;6.22;4.80;;;;;;;;;;5036107;28;20479;-59
2022/06/04 09:14:55;;;;;;;4.97;4.38;;;;;;;;;;5029809;28;20041;-59
2022/06/04 09:17:55;;;;;;;;;;;;;;;;;;;;;
2022/06/04 09:20:38;;;;;;;8.93;6.28;;;;;;;;;;5039317;28;20115;-59
2022/06/04 09:23:29;;;;;;;5.70;5.00;;;;;;;;;;5039023;28;20047;-59
2022/06/04 09:26:14;;;;;;;8.68;6.72;;;;;;;;;;5037287;28;20071;-59
2022/06/04 09:28:54;;;;;;;6.90;6.25;;;;;;;;;;5055228;28;20029;-59
2022/06/04 09:31:46;;;;;;;7.18;6.40;;;;;;;;;;5054812;28;20061;-59
2022/06/04 09:40:45;;;;;;;6.15;5.65;;;;;;;;;;5053898;28;20029;-59
2022/06/04 09:43:23;;;;;;;6.32;5.45;;;;;;;;;;5054831;28;20066;-60
2022/06/04 09:46:08;;;;;;;9.43;6.25;;;;;;;;;;5053382;28;20094;-59
2022/06/04 09:51:45;;;;;;;6.55;5.90;;;;;;;;;;5048505;28;20029;-60
2022/06/04 09:57:43;;;;;;;6.35;5.03;;;;;;;;;;5039036;28;20051;-59
2022/06/04 10:00:56;;;;;;;7.57;6.82;;;;;;;;;;5054383;28;20033;-59
2022/06/04 10:03:37;;;;;;;8.13;6.18;;;;;;;;;;4992422;28;20027;-60
2022/06/04 10:06:19;;;;;;;8.00;6.97;;;;;;;;;;4992363;28;20030;-59
2022/06/04 10:15:08;;;;;;;8.98;7.75;;;;;;;;;;4998852;28;20042;-59
2022/06/04 10:17:41;;;;;;;8.48;7.68;;;;;;;;;;4997448;28;20050;-59
2022/06/04 10:20:34;;;;;;;9.52;8.63;;;;;;;;;;4993448;28;20042;-59
2022/06/04 10:23:28;;;;;;;8.70;7.40;;;;;;;;;;4964593;28;20134;-59
2022/06/04 10:26:17;;;;;;;9.13;8.23;;;;;;;;;;4998237;28;20074;-59
2022/06/04 10:29:05;;;;;;;12.23;11.02;;;;;;;;;;4998030;28;20127;-60
2022/06/04 10:38:07;;;;;;;;;;;;;;;;;;;;;
2022/06/04 10:41:04;;;;;;;12.90;11.70;;;;;;;;;;5057796;28;20027;-60
2022/06/04 10:44:01;;;;;;;11.07;10.07;;;;;;;;;;5055417;28;20482;-60
2022/06/04 10:46:38;;;;;;;12.18;11.07;;;;;;;;;;5058455;28;20518;-60
2022/06/04 10:49:39;;;;;;;11.15;10.05;;;;;;;;;;5040808;28;20391;-60
2022/06/04 10:52:28;;;;;;;11.25;10.10;;;;;;;;;;5044389;28;20490;-60
2022/06/04 10:55:15;;;;;;;8.82;8.05;;;;;;;;;;5052096;28;20040;-58
2022/06/04 10:58:06;;;;;;;9.77;8.73;;;;;;;;;;5040595;28;20041;-59
2022/06/04 11:01:01;;;;;;;9.30;8.25;;;;;;;;;;5039887;28;20036;-59
2022/06/04 11:06:49;;;;;;;8.18;7.38;;;;;;;;;;5058616;28;20089;-59
2022/06/04 11:15:53;;;;;;;10.63;9.57;;;;;;;;;;5057609;28;20063;-59
2022/06/04 11:22:14;;;;;;;12.95;11.07;;;;;;;;;;4976659;28;20055;-59
2022/06/04 11:25:06;;;;;;;11.27;10.20;;;;;;;;;;5017896;28;20399;-59
2022/06/04 11:31:02;;;;;;;13.38;12.18;;;;;;;;;;4977153;28;20431;-59
2022/06/04 11:33:30;;;;;;;;;;;;;;;;;;5018344;28;20372;-59
2022/06/04 11:36:27;;;;;;;13.25;12.00;;;;;;;;;;5017481;28;19913;-59
2022/06/04 11:39:24;;;;;;;14.88;13.57;;;;;;;;;;5017502;28;20037;-59
2022/06/04 11:45:32;;;;;;;15.30;13.80;;;;;;;;;;5012749;28;20026;-59
2022/06/04 11:48:16;;;;;;;13.88;12.57;;;;;;;;;;5016016;28;20487;-59
2022/06/04 11:54:20;;;;;;;15.60;13.77;;;;;;;;;;4999363;28;20061;-59
2022/06/04 11:56:49;;;;;;;;;;;;;;;;;;5016983;28;20033;-59
2022/06/04 11:59:40;;;;;;;14.90;13.48;;;;;;;;;;5016528;28;19945;-59
2022/06/04 12:05:23;;;;;;;16.15;14.63;;;;;;;;;;4975293;28;20034;-59
2022/06/04 12:07:56;;;;;;;15.65;14.07;;;;;;;;;;4998704;28;20025;-59
2022/06/04 12:10:59;;;;;;;16.67;14.93;;;;;;;;;;5016546;28;20026;-59
2022/06/04 12:16:49;;;;;;;16.05;14.52;;;;;;;;;;4949266;28;20047;-59
2022/06/04 12:28:18;;;;;;;17.95;16.40;;;;;;;;;;5035873;28;19927;-59
2022/06/04 12:31:34;;;;;;;17.25;15.63;;;;;;;;;;5035728;28;20017;-59
2022/06/04 12:34:07;;;;;;;18.13;16.50;;;;;;;;;;5034945;28;20541;-59
2022/06/04 12:36:49;;;;;;;17.02;15.52;;;;;;;;;;5036002;28;20041;-59
2022/06/04 12:39:27;;;;;;;17.30;15.70;;;;;;;;;;5018002;28;20562;-59
2022/06/04 12:45:20;;;;;;;17.40;13.50;;;;;;;;;;5024859;28;20555;-59
2022/06/04 12:47:57;;;;;;;14.43;12.90;;;;;;;;;;5035580;28;20436;-59
2022/06/04 12:50:50;;;;;;;13.40;12.00;;;;;;;;;;5035570;28;20036;-59
2022/06/04 12:57:13;;;;;;;10.48;9.32;;;;;;;;;;5034675;28;20483;-59
2022/06/04 13:03:06;;;;;;;11.30;10.15;;;;;;;;;;5011779;28;20041;-59
2022/06/04 13:05:59;;;;;;;8.73;7.78;;;;;;;;;;5035421;28;20382;-59
2022/06/04 13:09:03;;;;;;;8.13;7.32;;;;;;;;;;5035322;28;20021;-59
2022/06/04 13:17:53;;;;;;;10.02;9.02;;;;;;;;;;5034315;28;20060;-59
2022/06/04 13:21:02;;;;;;;;;;;;;;;;;;;;;
2022/06/04 13:23:56;;;;;;;10.45;9.50;;;;;;;;;;4997055;28;20045;-59
2022/06/04 13:26:48;;;;;;;8.82;8.02;;;;;;;;;;5050469;28;20032;-59
2022/06/04 13:30:21;;;;;;;10.40;7.60;;;;;;;;;;5035895;28;20025;-59
2022/06/04 13:32:31;;;;;;;7.82;6.75;;;;;;;;;;5025747;28;20025;-59
2022/06/04 13:35:18;;;;;;;7.10;6.43;;;;;;;;;;5034783;28;20065;-59
2022/06/04 13:38:02;;;;;;;7.13;6.28;;;;;;;;;;5035504;28;20044;-59
2022/06/04 13:40:42;;;;;;;6.40;5.90;;;;;;;;;;5017413;28;20029;-59
2022/06/04 13:46:25;;;;;;;6.20;5.60;;;;;;;;;;5035028;28;20040;-59
2022/06/04 13:49:49;;;;;;;6.40;5.80;;;;;;;;;;5034012;28;20403;-59
2022/06/04 13:52:40;;;;;;;;;;;;;;;;;;;;;
2022/06/04 13:55:45;;;;;;;5.97;5.38;;;;;;;;;;5007674;28;20414;-59
2022/06/04 13:58:13;;;;;;;9.20;5.53;;;;;;;;;;5032830;28;20045;-59
2022/06/04 14:00:40;;;;;;;5.60;4.82;;;;;;;;;;5034069;28;20044;-59
2022/06/04 14:06:53;;;;;;;;;;;;;;;;;;;;;
2022/06/04 14:09:37;;;;;;;7.40;6.35;;;;;;;;;;4993705;28;20034;-59
2022/06/04 14:18:56;;;;;;;4.80;4.38;;;;;;;;;;4972380;28;20054;-59
2022/06/04 14:21:41;;;;;;;5.45;4.78;;;;;;;;;;4972552;28;20061;-59
2022/06/04 14:24:14;;;;;;;4.88;4.35;;;;;;;;;;4973575;28;20113;-59
2022/06/04 14:27:23;;;;;;;4.60;3.00;;;;;;;;;;4957498;28;20039;-59
2022/06/04 14:30:08;;;;;;;3.40;3.10;;;;;;;;;;4969623;28;20082;-59
2022/06/04 14:32:48;;;;;;;4.88;3.47;;;;;;;;;;5032409;28;20041;-59
2022/06/04 14:35:56;;;;;;;;;;;;;;;;;;;;;
2022/06/04 14:38:33;;;;;;;7.57;3.42;;;;;;;;;;5030364;28;20041;-59
2022/06/04 14:44:08;;;;;;;4.53;4.05;;;;;;;;;;5033708;28;20032;-59
2022/06/04 14:46:46;;;;;;;8.70;3.25;;;;;;;;;;5033869;28;20104;-59
2022/06/04 14:49:22;;;;;;;3.63;3.00;;;;;;;;;;5035894;28;20030;-59
2022/06/04 14:52:19;;;;;;;4.15;3.30;;;;;;;;;;5060540;28;20033;-59
2022/06/04 14:58:10;;;;;;;4.65;3.85;;;;;;;;;;5031680;28;20045;-59
2022/06/04 15:00:57;;;;;;;4.67;3.87;;;;;;;;;;5029715;28;20494;-59
2022/06/04 15:03:49;;;;;;;3.92;3.45;;;;;;;;;;5034718;28;20036;-59
2022/06/04 15:06:48;;;;;;;4.03;3.67;;;;;;;;;;5033644;28;20025;-59
2022/06/04 15:09:39;;;;;;;6.18;4.55;;;;;;;;;;5009620;28;20060;-59
2022/06/04 15:15:32;;;;;;;6.45;4.43;;;;;;;;;;5011709;28;20129;-59
2022/06/04 15:18:27;;;;;;;4.72;3.35;;;;;;;;;;5011494;28;20049;-59
2022/06/04 15:21:13;;;;;;;3.92;2.83;;;;;;;;;;5030655;28;20116;-59
2022/06/04 15:24:03;;;;;;;4.40;3.08;;;;;;;;;;5068776;28;20502;-59
2022/06/04 15:36:20;;;;;;;4.15;2.67;;;;;;;;;;5036643;28;20052;-59
2022/06/04 15:39:07;;;;;;;;;;;;;;;;;;5039858;28;20045;-59
2022/06/04 15:41:39;;;;;;;3.80;3.00;;;;;;;;;;5039468;28;19975;-59
2022/06/04 15:47:22;;;;;;;4.60;2.75;;;;;;;;;;5038154;28;20067;-60
2022/06/04 15:56:03;;;;;;;3.95;3.47;;;;;;;;;;5039134;28;20132;-59
2022/06/04 15:58:40;;;;;;;6.78;3.78;;;;;;;;;;5070617;28;20129;-59
2022/06/04 16:01:25;;;;;;;5.18;3.13;;;;;;;;;;5038541;28;20032;-59
2022/06/04 16:04:06;;;;;;;3.97;3.30;;;;;;;;;;5039588;28;20025;-59
2022/06/04 16:07:21;;;;;;;4.20;3.70;;;;;;;;;;5067648;28;20479;-59
2022/06/04 16:10:08;;;;;;;3.40;2.90;;;;;;;;;;5011913;28;20030;-58
2022/06/04 16:12:40;;;;;;;3.15;2.55;;;;;;;;;;5033788;28;20065;-59
2022/06/04 16:15:41;;;;;;;3.67;3.22;;;;;;;;;;5069818;28;20021;-59
2022/06/04 16:18:40;;;;;;;4.82;3.13;;;;;;;;;;5047512;28;20495;-58
2022/06/04 16:21:44;;;;;;;4.00;3.45;;;;;;;;;;5057793;28;20111;-59
2022/06/04 16:24:49;;;;;;;4.55;3.15;;;;;;;;;;4995835;28;20560;-59
2022/06/04 16:27:37;;;;;;;5.55;3.80;;;;;;;;;;4958575;29;20048;-58
2022/06/04 16:30:39;;;;;;;4.30;3.90;;;;;;;;;;4958894;29;20035;-58
2022/06/04 16:33:12;;;;;;;4.15;3.65;;;;;;;;;;5011095;28;20033;-58
2022/06/04 16:36:10;;;;;;;;;;;;;;;;;;;;;
2022/06/04 16:38:53;;;;;;;4.22;3.65;;;;;;;;;;5043684;28;20475;-58
2022/06/04 16:41:54;;;;;;;4.60;3.00;;;;;;;;;;5037031;28;20421;-59
2022/06/04 16:44:38;;;;;;;5.80;3.83;;;;;;;;;;5037271;28;20355;-59
2022/06/04 16:47:30;;;;;;;4.50;4.05;;;;;;;;;;5056050;28;20112;-59
2022/06/04 16:50:03;;;;;;;5.97;4.03;;;;;;;;;;5037292;28;20029;-59
2022/06/04 16:52:31;;;;;;;5.00;4.50;;;;;;;;;;5053168;28;20470;-58
2022/06/04 16:55:17;;;;;;;5.65;5.13;;;;;;;;;;5037183;28;20033;-59
2022/06/04 17:01:09;;;;;;;6.10;5.32;;;;;;;;;;5013314;28;20526;-58
2022/06/04 17:03:44;;;;;;;5.47;4.95;;;;;;;;;;5014051;28;20431;-59
2022/06/04 17:06:44;;;;;;;6.13;5.22;;;;;;;;;;4996189;28;20520;-59
2022/06/04 17:15:49;;;;;;;5.85;5.35;;;;;;;;;;4960771;28;20031;-59
2022/06/04 17:18:39;;;;;;;6.53;5.80;;;;;;;;;;5010152;28;20061;-60
2022/06/04 17:21:29;;;;;;;4.97;4.47;;;;;;;;;;4994114;28;20025;-59
2022/06/04 17:24:07;;;;;;;6.38;5.25;;;;;;;;;;5017622;28;20468;-59
2022/06/04 17:27:07;;;;;;;5.45;4.15;;;;;;;;;;5048483;28;20507;-59
2022/06/04 17:29:55;;;;;;;5.55;5.05;;;;;;;;;;5022201;28;20033;-59
2022/06/04 17:33:01;;;;;;;5.65;4.95;;;;;;;;;;5045368;28;20487;-59
2022/06/04 17:35:48;;;;;;;5.00;4.47;;;;;;;;;;5034919;28;20180;-59
2022/06/04 17:38:43;;;;;;;6.93;4.50;;;;;;;;;;5050000;28;20032;-59
2022/06/04 17:41:30;;;;;;;4.82;4.28;;;;;;;;;;4997010;28;20068;-59
2022/06/04 17:44:32;;;;;;;4.57;4.18;;;;;;;;;;5035095;28;20104;-59
2022/06/04 17:47:27;;;;;;;4.78;4.28;;;;;;;;;;5002818;28;20048;-59
2022/06/04 17:53:19;;;;;;;5.23;4.73;;;;;;;;;;5015356;28;20104;-59
2022/06/04 17:55:52;;;;;;;5.00;4.47;;;;;;;;;;5032969;28;20634;-59
2022/06/04 18:01:53;;;;;;;5.15;4.38;;;;;;;;;;5034388;28;20045;-59
2022/06/04 18:04:35;;;;;;;5.18;4.68;;;;;;;;;;5034898;28;20033;-59
2022/06/04 18:10:13;;;;;;;6.07;5.18;;;;;;;;;;5034709;28;20068;-59
2022/06/04 18:13:18;;;;;;;;;;;;;;;;;;;;;
2022/06/04 18:16:04;;;;;;;;;;;;;;;;;;;;;
2022/06/04 18:18:45;;;;;;;4.82;4.38;;;;;;;;;;5023257;28;20152;-59
2022/06/04 18:26:57;;;;;;;5.03;4.53;;;;;;;;;;5057372;28;20117;-59
2022/06/04 18:35:52;;;;;;;5.50;4.90;;;;;;;;;;5012236;28;20091;-59
2022/06/04 18:38:41;;;;;;;;;;;;;;;;;;;;;
2022/06/04 18:41:52;;;;;;;6.00;4.80;;;;;;;;;;5045395;28;20129;-59
2022/06/04 19:00:16;;;;;;;6.40;5.80;;;;;;;;;;5059810;28;20028;-59
2022/06/04 19:03:19;;;;;;;7.45;6.72;;;;;;;;;;5058798;28;20013;-59
2022/06/04 19:06:07;;;;;;;6.93;6.20;;;;;;;;;;5039372;28;20155;-59
2022/06/04 19:09:07;;;;;;;6.40;5.78;;;;;;;;;;5058566;28;20060;-59
2022/06/04 19:14:28;;;;;;;8.38;7.07;;;;;;;;;;5057982;28;20052;-59
2022/06/04 19:17:12;;;;;;;7.57;6.88;;;;;;;;;;5057661;28;20459;-59
2022/06/04 19:24:36;;;;;;;8.07;6.53;;;;;;;;;;5059651;28;20524;-59
2022/06/04 19:25:35;;;;;;;7.68;6.97;;;;;;;;;;5056775;28;20051;-59
2022/06/04 19:28:22;;;;;;;7.33;6.63;;;;;;;;;;5035869;28;20379;-59
2022/06/04 19:31:20;;;;;;;9.20;8.40;;;;;;;;;;5041186;28;20479;-59
2022/06/04 19:34:08;;;;;;;9.85;8.15;;;;;;;;;;5045058;28;20378;-59
2022/06/04 19:37:02;;;;;;;9.60;8.10;;;;;;;;;;5050382;28;20482;-59
2022/06/04 19:39:32;;;;;;;8.45;7.03;;;;;;;;;;5034154;28;20554;-59
2022/06/04 19:42:03;;;;;;;8.43;7.07;;;;;;;;;;5039170;28;20558;-59
2022/06/04 19:44:46;;;;;;;;;;;;;;;;;;;;;
2022/06/04 19:47:18;;;;;;;7.82;7.03;;;;;;;;;;5056829;28;20035;-59
2022/06/04 19:50:00;;;;;;;7.60;6.35;;;;;;;;;;5056466;28;20060;-59
2022/06/04 19:55:38;;;;;;;;;;;;;;;;;;;;;
2022/06/04 19:58:17;;;;;;;8.35;6.45;;;;;;;;;;5057058;28;20046;-59
2022/06/04 20:01:27;;;;;;;7.30;6.60;;;;;;;;;;5056743;28;20332;-59
2022/06/04 20:04:11;;;;;;;8.95;6.93;;;;;;;;;;5038367;28;20037;-59
2022/06/04 20:06:53;;;;;;;7.93;6.47;;;;;;;;;;5033892;28;20395;-59
2022/06/04 20:09:46;;;;;;;7.25;6.55;;;;;;;;;;5017206;28;20048;-59
2022/06/04 20:18:30;;;;;;;8.75;6.38;;;;;;;;;;5033282;28;20152;-59
2022/06/04 20:21:04;;;;;;;6.10;5.50;;;;;;;;;;5017606;28;20057;-59
2022/06/04 20:23:35;;;;;;;5.45;4.95;;;;;;;;;;5034350;28;20079;-59
2022/06/04 20:32:11;;;;;;;6.95;4.70;;;;;;;;;;5033827;28;20541;-58
2022/06/04 20:34:56;;;;;;;5.63;5.10;;;;;;;;;;5016576;28;20038;-58
2022/06/04 20:41:08;;;;;;;9.65;5.18;;;;;;;;;;5014027;28;20032;-59
2022/06/04 20:47:04;;;;;;;8.30;5.55;;;;;;;;;;5031631;28;20510;-59
2022/06/04 20:56:02;;;;;;;5.70;5.10;;;;;;;;;;5033853;28;20468;-59
2022/06/04 20:58:46;;;;;;;7.68;4.88;;;;;;;;;;5014518;28;20042;-59
2022/06/04 21:01:15;;;;;;;5.97;4.95;;;;;;;;;;5015995;28;20384;-59
2022/06/04 21:03:42;;;;;;;6.05;4.70;;;;;;;;;;5003316;28;20057;-59
2022/06/04 21:06:34;;;;;;;5.63;4.68;;;;;;;;;;5004446;28;20041;-59
2022/06/04 21:09:07;;;;;;;5.85;5.25;;;;;;;;;;5003494;28;20033;-59
2022/06/04 21:11:50;;;;;;;5.47;4.97;;;;;;;;;;5020876;28;20064;-59
2022/06/04 21:17:08;;;;;;;6.07;4.55;;;;;;;;;;5020247;28;20128;-59
2022/06/04 21:19:51;;;;;;;5.10;4.60;;;;;;;;;;5002217;28;20046;-59
2022/06/04 21:22:27;;;;;;;5.45;4.95;;;;;;;;;;5021370;28;20068;-59
2022/06/04 21:28:19;;;;;;;;;;;;;;;;;;;;;
2022/06/04 21:33:57;;;;;;;6.38;4.65;;;;;;;;;;5007037;28;20030;-58
2022/06/04 21:42:32;;;;;;;9.05;5.25;;;;;;;;;;5008742;28;20352;-58
2022/06/04 21:45:09;;;;;;;4.72;4.30;;;;;;;;;;5005364;28;20044;-59
2022/06/04 21:47:52;;;;;;;5.93;4.85;;;;;;;;;;5023207;28;20034;-58
2022/06/04 22:03:07;;;;;;;7.40;5.50;;;;;;;;;;5017695;28;20127;-58
2022/06/04 22:05:56;;;;;;;5.32;4.65;;;;;;;;;;4979868;28;20390;-58
2022/06/04 22:09:02;;;;;;;5.15;4.65;;;;;;;;;;4949618;28;20038;-58
2022/06/04 22:12:06;;;;;;;4.85;4.45;;;;;;;;;;5020805;28;20026;-58
2022/06/04 22:14:55;;;;;;;5.72;4.82;;;;;;;;;;5020246;28;20064;-58
2022/06/04 22:17:30;;;;;;;8.00;4.95;;;;;;;;;;5020402;28;20034;-58
2022/06/04 22:20:12;;;;;;;6.43;5.28;;;;;;;;;;5035481;28;20105;-58
2022/06/04 22:23:10;;;;;;;;;;;;;;;;;;;;;
2022/06/04 22:26:38;;;;;;;6.03;5.43;;;;;;;;;;4971099;28;20128;-58
2022/06/04 22:28:57;;;;;;;6.43;4.72;;;;;;;;;;5036799;28;20065;-58
2022/06/04 22:34:39;;;;;;;6.75;6.05;;;;;;;;;;5047522;28;20045;-58
2022/06/04 22:37:32;;;;;;;5.18;4.68;;;;;;;;;;5048221;28;20029;-58
2022/06/04 22:46:26;;;;;;;4.97;4.57;;;;;;;;;;5006565;28;20034;-58
2022/06/04 22:49:31;;;;;;;5.22;4.68;;;;;;;;;;4966267;28;20101;-58
2022/06/04 22:52:42;;;;;;;5.70;5.15;;;;;;;;;;5048719;28;20025;-59
2022/06/04 22:55:22;;;;;;;6.60;5.15;;;;;;;;;;5025972;28;20026;-58
2022/06/04 23:06:48;;;;;;;6.22;5.63;;;;;;;;;;5048260;28;20041;-58
2022/06/04 23:21:31;;;;;;;5.95;5.43;;;;;;;;;;5046009;28;20403;-58
2022/06/04 23:24:31;;;;;;;5.90;5.30;;;;;;;;;;5047983;28;20060;-58
2022/06/04 23:27:15;;;;;;;;;;;;;;;;;;;;;
2022/06/04 23:29:53;;;;;;;7.03;6.22;;;;;;;;;;5047622;28;20328;-58
2022/06/04 23:32:37;;;;;;;6.25;5.65;;;;;;;;;;5047919;28;20026;-58
2022/06/04 23:38:11;;;;;;;6.60;5.95;;;;;;;;;;5039141;28;20052;-58
2022/06/04 23:40:51;;;;;;;8.20;6.90;;;;;;;;;;5030958;28;20034;-58
2022/06/04 23:43:21;;;;;;;6.53;5.78;;;;;;;;;;5046618;28;20037;-58